Time;durP1;ratioP1;P1;durP2;ratioP2;P2;SDS_P1;SDS_P2;PMS_P1;PMS_P2;Temp;Humidity;BMP_temperature;BMP_pressure;BME280_temperature;BME280_humidity;BME280_pressure;Samples;Min_cycle;Max_cycle;Signal;HPM_P1;HPM_P2
2023/06/18 00:01:37;;;;;;;5.95;5.45;;;;;;;23.15;34.68;99880.94;10393332;28;20402;-54
2023/06/18 00:06:38;;;;;;;6.00;5.30;;;;;;;23.04;34.28;99876.97;10392736;28;20167;-53
2023/06/18 00:11:40;;;;;;;6.78;5.50;;;;;;;22.93;34.22;99881.19;10394401;28;20784;-53
2023/06/18 00:16:41;;;;;;;6.38;5.70;;;;;;;22.88;35.30;99887.28;10394492;28;20584;-53
2023/06/18 00:21:43;;;;;;;5.68;5.18;;;;;;;22.75;34.90;99873.72;10390595;28;20653;-53
2023/06/18 00:26:44;;;;;;;5.88;5.38;;;;;;;22.78;35.24;99892.31;10393193;28;20088;-53
2023/06/18 00:31:45;;;;;;;6.70;5.38;;;;;;;22.70;35.28;99878.94;10391784;28;20045;-54
2023/06/18 00:36:50;;;;;;;6.03;5.43;;;;;;;22.58;35.84;99865.22;10394393;28;20049;-53
2023/06/18 00:41:52;;;;;;;6.93;6.25;;;;;;;22.56;36.10;99872.72;10394993;28;20061;-54
2023/06/18 00:46:56;;;;;;;8.88;6.70;;;;;;;22.48;36.42;99871.06;10392266;28;20068;-54
2023/06/18 00:51:58;;;;;;;6.70;6.13;;;;;;;22.40;37.13;99882.16;10393795;28;20070;-54
2023/06/18 00:57:00;;;;;;;6.30;5.70;;;;;;;22.32;37.14;99874.22;10391400;28;20061;-53
2023/06/18 01:02:01;;;;;;;6.07;5.47;;;;;;;22.22;37.46;99870.03;10395020;28;20171;-54
2023/06/18 01:07:12;;;;;;;8.20;6.03;;;;;;;22.16;37.91;99876.28;10389704;28;20073;-54
2023/06/18 01:12:15;;;;;;;6.75;5.95;;;;;;;22.10;38.33;99869.00;10397472;28;20075;-53
2023/06/18 01:17:20;;;;;;;6.15;5.65;;;;;;;22.05;38.53;99872.34;10388902;28;20056;-53
2023/06/18 01:22:40;;;;;;;6.15;5.65;;;;;;;21.99;39.10;99875.88;10389116;28;20198;-53
2023/06/18 01:27:43;;;;;;;6.90;6.30;;;;;;;21.94;39.27;99870.22;10387225;28;20049;-53
2023/06/18 01:32:45;;;;;;;7.50;6.90;;;;;;;21.89;39.41;99865.44;10392753;28;20556;-53
2023/06/18 01:37:50;;;;;;;8.02;7.22;;;;;;;21.85;39.93;99860.63;10389852;28;20845;-53
2023/06/18 01:43:11;;;;;;;8.23;7.53;;;;;;;21.81;40.44;99865.66;10389235;28;20052;-53
2023/06/18 01:48:15;;;;;;;7.75;7.15;;;;;;;21.73;40.29;99856.88;10389195;28;20155;-53
2023/06/18 01:53:17;;;;;;;8.32;7.43;;;;;;;21.67;40.50;99866.66;10390547;28;20072;-53
2023/06/18 01:58:21;;;;;;;8.15;7.43;;;;;;;21.61;41.11;99862.91;10380008;28;20053;-53
2023/06/18 02:03:22;;;;;;;8.73;7.93;;;;;;;21.58;41.08;99867.91;10388608;28;20084;-54
2023/06/18 02:08:26;;;;;;;9.13;7.90;;;;;;;21.51;41.25;99866.00;10391746;28;20049;-53
2023/06/18 02:13:27;;;;;;;8.35;7.43;;;;;;;21.50;41.23;99867.03;10387568;28;20249;-54
2023/06/18 02:18:30;;;;;;;8.00;7.32;;;;;;;21.50;41.44;99872.47;10382137;28;20060;-53
2023/06/18 02:23:31;;;;;;;8.57;7.57;;;;;;;21.44;41.39;99865.13;10384229;28;20103;-53
2023/06/18 02:28:33;;;;;;;8.05;7.25;;;;;;;21.42;41.50;99869.88;10380681;28;20115;-54
2023/06/18 02:33:34;;;;;;;7.82;7.05;;;;;;;21.36;41.29;99863.44;10385437;28;20559;-53
2023/06/18 02:38:36;;;;;;;9.40;8.50;;;;;;;21.29;41.69;99873.41;10387038;28;20088;-53
2023/06/18 02:43:37;;;;;;;8.80;7.90;;;;;;;21.22;41.98;99860.88;10389427;28;20049;-53
2023/06/18 02:48:38;;;;;;;8.80;8.07;;;;;;;21.12;42.13;99853.13;10382978;28;20183;-54
2023/06/18 02:53:40;;;;;;;9.63;8.73;;;;;;;21.06;42.49;99862.88;10395566;28;20063;-53
2023/06/18 02:58:42;;;;;;;9.13;8.18;;;;;;;20.98;42.38;99861.19;10388938;28;20590;-54
2023/06/18 03:03:43;;;;;;;8.35;7.65;;;;;;;20.91;42.39;99854.94;10392412;28;20194;-53
2023/06/18 03:08:46;;;;;;;7.35;6.65;;;;;;;20.83;42.85;99863.22;10381608;28;20096;-53
2023/06/18 03:13:49;;;;;;;7.30;6.60;;;;;;;20.79;42.74;99862.78;10381971;28;20300;-53
2023/06/18 03:18:51;;;;;;;7.15;6.45;;;;;;;20.78;42.83;99861.13;10385378;28;20204;-56
2023/06/18 03:23:52;;;;;;;7.53;6.47;;;;;;;20.77;43.00;99864.84;10377475;28;20053;-56
2023/06/18 03:28:54;;;;;;;7.32;6.25;;;;;;;20.75;42.97;99860.69;10384481;28;20053;-54
2023/06/18 03:34:01;;;;;;;7.30;6.60;;;;;;;20.72;42.89;99867.31;10386748;28;21866;-54
2023/06/18 03:39:03;;;;;;;6.70;6.10;;;;;;;20.75;42.53;99872.34;10387365;28;20056;-53
2023/06/18 03:44:05;;;;;;;7.47;6.77;;;;;;;20.72;43.26;99869.19;10384546;28;20060;-53
2023/06/18 03:49:07;;;;;;;6.80;5.97;;;;;;;20.68;43.11;99876.03;10379340;28;21121;-53
2023/06/18 03:54:08;;;;;;;6.10;5.50;;;;;;;20.62;43.15;99878.44;10380347;28;20053;-54
2023/06/18 03:59:10;;;;;;;7.13;6.30;;;;;;;20.57;43.73;99878.22;10378614;28;20053;-54
2023/06/18 04:04:11;;;;;;;6.97;6.28;;;;;;;20.56;43.98;99873.00;10383886;28;20065;-53
2023/06/18 04:09:13;;;;;;;6.53;6.00;;;;;;;20.55;44.18;99872.19;10383495;28;20951;-52
2023/06/18 04:14:15;;;;;;;7.57;6.85;;;;;;;20.53;44.21;99878.81;10377270;28;20057;-54
2023/06/18 04:19:16;;;;;;;6.95;6.28;;;;;;;20.43;44.23;99869.19;10382000;28;20061;-53
2023/06/18 04:24:18;;;;;;;6.97;6.28;;;;;;;20.56;44.15;99889.25;10377330;28;20128;-53
2023/06/18 04:29:20;;;;;;;6.88;6.28;;;;;;;20.58;44.71;99892.56;10380122;28;20059;-53
2023/06/18 04:34:21;;;;;;;7.30;6.32;;;;;;;20.55;44.64;99892.97;10388961;28;20053;-53
2023/06/18 04:39:23;;;;;;;8.85;7.13;;;;;;;20.57;44.31;99891.75;10386533;28;20103;-53
2023/06/18 04:44:26;;;;;;;6.53;5.93;;;;;;;20.55;44.64;99887.56;10389672;28;20045;-52
2023/06/18 04:49:29;;;;;;;7.50;6.63;;;;;;;20.53;45.14;99882.34;10390992;28;20139;-53
2023/06/18 04:54:31;;;;;;;7.20;6.60;;;;;;;20.43;45.31;99868.34;10385529;28;20045;-52
2023/06/18 04:59:34;;;;;;;7.40;6.70;;;;;;;20.46;45.43;99887.72;10388032;28;20054;-53
2023/06/18 05:04:36;;;;;;;;;;;;;;;20.44;45.53;99891.66;10385657;28;20048;-53
2023/06/18 05:09:37;;;;;;;7.63;6.97;;;;;;;20.41;45.52;99892.88;10388864;28;19947;-53
2023/06/18 05:14:38;;;;;;;8.18;6.63;;;;;;;20.45;45.91;99891.44;10386684;28;20045;-53
2023/06/18 05:19:40;;;;;;;7.03;6.40;;;;;;;20.51;46.38;99897.94;10383849;28;20045;-53
2023/06/18 05:24:42;;;;;;;6.82;6.22;;;;;;;20.55;46.36;99895.66;10384393;28;20650;-53
2023/06/18 05:29:43;;;;;;;7.30;6.68;;;;;;;20.56;45.85;99906.28;10382560;28;20049;-53
2023/06/18 05:34:45;;;;;;;7.30;6.60;;;;;;;20.56;46.42;99900.88;10389237;28;20544;-53
2023/06/18 05:39:46;;;;;;;7.07;6.45;;;;;;;20.63;47.03;99898.22;10391530;28;20155;-53
2023/06/18 05:44:48;;;;;;;7.43;6.72;;;;;;;20.65;45.86;99897.00;10382284;28;20049;-53
2023/06/18 05:49:49;;;;;;;6.90;6.30;;;;;;;20.71;46.65;99908.91;10389179;28;20134;-53
2023/06/18 05:54:50;;;;;;;8.30;5.95;;;;;;;20.82;46.47;99912.94;10387393;28;20049;-53
2023/06/18 05:59:52;;;;;;;7.28;6.63;;;;;;;20.93;45.83;99911.56;10383708;28;20127;-53
2023/06/18 06:04:53;;;;;;;7.10;6.47;;;;;;;21.01;45.83;99914.09;10387854;28;22086;-53
2023/06/18 06:09:55;;;;;;;6.60;6.03;;;;;;;20.93;45.66;99914.25;10385058;28;20163;-55
2023/06/18 06:14:57;;;;;;;7.80;7.15;;;;;;;21.06;46.03;99921.59;10388290;28;20059;-54
2023/06/18 06:19:59;;;;;;;7.55;6.85;;;;;;;21.15;46.61;99918.53;10374650;28;20064;-53
2023/06/18 06:25:01;;;;;;;7.23;6.53;;;;;;;21.19;45.98;99922.50;10383162;28;20055;-53
2023/06/18 06:30:03;;;;;;;6.88;6.28;;;;;;;21.40;46.25;99922.59;10381576;28;20152;-57
2023/06/18 06:35:05;;;;;;;6.40;5.80;;;;;;;21.57;45.82;99923.09;10384930;28;20068;-57
2023/06/18 06:40:08;;;;;;;6.22;5.55;;;;;;;21.73;45.57;99925.41;10373007;28;20064;-57
2023/06/18 06:45:10;;;;;;;6.63;6.03;;;;;;;21.89;45.60;99924.22;10377967;28;20051;-57
2023/06/18 06:50:12;;;;;;;7.10;6.13;;;;;;;21.96;46.07;99922.31;10371732;28;20362;-57
2023/06/18 06:55:13;;;;;;;8.27;7.10;;;;;;;22.03;45.33;99923.19;10370371;28;20155;-58
2023/06/18 07:00:16;;;;;;;6.85;6.25;;;;;;;22.16;44.75;99927.78;10366178;28;20053;-57
2023/06/18 07:05:17;;;;;;;7.00;6.30;;;;;;;22.20;44.82;99929.06;10378372;28;20054;-57
2023/06/18 07:10:19;;;;;;;7.00;5.78;;;;;;;22.22;44.99;99924.25;10374986;28;20064;-57
2023/06/18 07:15:21;;;;;;;6.40;5.90;;;;;;;22.31;44.89;99924.03;10378349;28;20306;-57
2023/06/18 07:20:23;;;;;;;6.63;6.13;;;;;;;22.49;44.72;99918.00;10362076;28;20476;-51
2023/06/18 07:25:25;;;;;;;6.78;6.15;;;;;;;22.64;44.59;99923.19;10372975;28;20064;-53
2023/06/18 07:30:26;;;;;;;6.40;5.90;;;;;;;22.82;44.57;99923.41;10384955;28;20128;-50
2023/06/18 07:35:28;;;;;;;7.57;5.85;;;;;;;23.00;44.58;99917.28;10371498;28;20129;-51
2023/06/18 07:40:33;;;;;;;6.57;5.95;;;;;;;23.26;44.22;99916.38;10378331;28;20095;-51
2023/06/18 07:45:35;;;;;;;6.00;5.22;;;;;;;23.49;43.72;99923.19;10382026;28;20615;-50
2023/06/18 07:50:37;;;;;;;5.88;5.40;;;;;;;23.70;43.39;99913.03;10377522;28;20105;-52
2023/06/18 07:55:38;;;;;;;6.22;5.72;;;;;;;23.79;43.09;99914.44;10377011;28;20467;-51
2023/06/18 08:00:40;;;;;;;6.38;5.78;;;;;;;23.99;42.66;99909.75;10372879;28;20442;-51
2023/06/18 08:05:41;;;;;;;6.55;5.97;;;;;;;24.17;41.92;99908.16;10382808;28;20044;-51
2023/06/18 08:10:43;;;;;;;6.55;5.95;;;;;;;24.23;40.60;99910.00;10373182;28;20056;-51
2023/06/18 08:15:45;;;;;;;6.97;6.10;;;;;;;24.35;39.53;99901.94;10377448;28;20072;-51
2023/06/18 08:20:47;;;;;;;5.83;5.43;;;;;;;24.40;40.14;99887.69;10379139;28;20650;-51
2023/06/18 08:25:48;;;;;;;7.15;5.95;;;;;;;24.72;39.85;99898.47;10371594;28;20288;-51
2023/06/18 08:30:50;;;;;;;6.50;6.00;;;;;;;24.91;40.01;99885.72;10377744;28;20044;-51
2023/06/18 08:35:51;;;;;;;6.13;5.60;;;;;;;25.12;40.03;99884.41;10361090;28;20049;-51
2023/06/18 08:41:01;;;;;;;6.93;4.82;;;;;;;25.37;38.13;99892.50;10381773;28;20100;-51
2023/06/18 08:46:05;;;;;;;6.32;5.55;;;;;;;25.60;37.62;99880.88;10375448;28;20053;-50
2023/06/18 08:51:09;;;;;;;6.40;5.57;;;;;;;25.87;36.61;99886.75;10374947;28;20045;-52
2023/06/18 08:56:14;;;;;;;7.30;5.90;;;;;;;25.67;36.13;99887.06;10369317;28;20073;-53
2023/06/18 09:01:17;;;;;;;6.55;5.53;;;;;;;25.79;35.89;99880.81;10378699;28;20639;-56
2023/06/18 09:06:18;;;;;;;6.72;6.10;;;;;;;24.81;40.65;99880.78;10378120;28;20685;-52
2023/06/18 09:11:20;;;;;;;6.97;6.35;;;;;;;24.91;38.65;99872.94;10379823;28;20783;-56
2023/06/18 09:16:25;;;;;;;6.50;5.90;;;;;;;25.58;36.86;99861.19;10372578;28;20173;-52
2023/06/18 09:21:38;;;;;;;7.43;6.83;;;;;;;25.98;35.34;99863.28;10371093;28;20517;-52
2023/06/18 09:26:40;;;;;;;6.90;6.28;;;;;;;26.17;34.93;99863.25;10374374;28;20149;-52
2023/06/18 09:31:46;;;;;;;6.10;5.53;;;;;;;26.45;35.69;99857.91;10376158;28;20044;-52
2023/06/18 09:36:49;;;;;;;7.50;6.82;;;;;;;26.76;35.00;99860.53;10377394;28;20882;-52
2023/06/18 09:41:52;;;;;;;6.50;5.82;;;;;;;26.94;33.97;99856.81;10371003;28;20227;-51
2023/06/18 09:46:57;;;;;;;6.45;5.85;;;;;;;27.28;32.19;99846.00;10366117;28;20056;-52
2023/06/18 09:51:59;;;;;;;5.70;5.28;;;;;;;27.51;32.61;99840.44;10371492;28;20045;-52
2023/06/18 09:57:03;;;;;;;6.67;5.90;;;;;;;27.77;32.82;99840.06;10377510;28;20068;-52
2023/06/18 10:02:06;;;;;;;6.78;5.97;;;;;;;27.95;31.10;99841.75;10370416;28;20045;-53
2023/06/18 10:07:15;;;;;;;6.55;5.95;;;;;;;28.25;31.30;99837.88;10377794;28;20053;-58
2023/06/18 10:12:18;;;;;;;5.53;5.13;;;;;;;28.50;30.73;99834.66;10367269;28;20049;-58
2023/06/18 10:17:34;;;;;;;6.57;5.93;;;;;;;28.78;30.51;99825.50;10372149;28;20044;-61
2023/06/18 10:23:08;;;;;;;6.38;5.78;;;;;;;29.06;28.69;99829.09;10370916;28;20302;-58
2023/06/18 10:28:11;;;;;;;6.15;5.55;;;;;;;29.18;28.15;99826.22;10363241;28;20144;-58
2023/06/18 10:33:12;;;;;;;7.97;6.00;;;;;;;29.25;27.92;99830.44;10377441;28;20056;-58
2023/06/18 10:38:14;;;;;;;6.22;5.63;;;;;;;29.29;28.34;99818.97;10375799;28;20360;-58
2023/06/18 10:43:16;;;;;;;6.07;5.22;;;;;;;29.40;28.19;99815.25;10380133;28;20059;-58
2023/06/18 10:48:22;;;;;;;5.63;5.15;;;;;;;29.68;27.41;99811.41;10378577;28;20966;-59
2023/06/18 10:53:24;;;;;;;6.97;5.38;;;;;;;29.89;27.20;99804.19;10376941;28;20640;-57
2023/06/18 10:58:33;;;;;;;5.83;4.97;;;;;;;30.01;25.94;99786.72;10375686;28;20539;-58
2023/06/18 11:03:37;;;;;;;5.50;4.85;;;;;;;30.17;26.17;99782.97;10362901;28;20511;-58
2023/06/18 11:08:39;;;;;;;6.88;5.18;;;;;;;30.25;25.68;99782.50;10363208;28;20080;-63
2023/06/18 11:13:53;;;;;;;5.85;5.22;;;;;;;30.38;25.37;99777.59;10365845;28;20056;-58
2023/06/18 11:18:59;;;;;;;5.43;4.93;;;;;;;30.59;24.76;99784.88;10378138;28;20140;-58
2023/06/18 11:24:02;;;;;;;4.78;4.38;;;;;;;30.76;24.32;99776.44;10376250;28;20063;-58
2023/06/18 11:29:06;;;;;;;5.43;5.03;;;;;;;30.92;24.83;99766.31;10365639;28;20410;-58
2023/06/18 11:34:09;;;;;;;5.57;5.07;;;;;;;31.11;24.74;99772.16;10368524;28;20600;-58
2023/06/18 11:39:13;;;;;;;4.97;4.57;;;;;;;31.17;24.42;99764.75;10377253;28;20109;-58
2023/06/18 11:44:14;;;;;;;5.35;4.95;;;;;;;31.24;22.77;99751.56;10385294;28;20900;-57
2023/06/18 11:49:16;;;;;;;8.73;5.55;;;;;;;31.27;24.17;99748.28;10382744;28;20726;-59
2023/06/18 11:54:17;;;;;;;4.75;4.35;;;;;;;31.40;24.35;99743.34;10381018;28;20520;-58
2023/06/18 11:59:19;;;;;;;5.68;5.18;;;;;;;31.42;23.91;99743.88;10376711;28;20048;-58
2023/06/18 12:04:20;;;;;;;5.30;4.80;;;;;;;31.51;24.05;99729.31;10392175;28;20126;-58
2023/06/18 12:09:22;;;;;;;;;;;;;;;31.55;23.43;99732.34;10382380;28;20136;-57
2023/06/18 12:14:52;;;;;;;4.97;4.47;;;;;;;31.51;23.95;99714.72;10388814;28;19938;-57
2023/06/18 12:20:07;;;;;;;5.38;4.97;;;;;;;31.37;22.98;99712.53;10367785;28;20061;-56
2023/06/18 12:25:11;;;;;;;6.55;5.70;;;;;;;31.31;23.73;99705.38;10386697;28;20493;-56
2023/06/18 12:30:13;;;;;;;5.20;4.70;;;;;;;31.37;23.80;99709.78;10384768;28;20056;-59
2023/06/18 12:35:16;;;;;;;4.53;4.22;;;;;;;31.43;23.73;99694.09;10381679;28;20073;-57
2023/06/18 12:40:23;;;;;;;4.95;4.55;;;;;;;31.54;23.49;99692.16;10385532;28;20065;-57
2023/06/18 12:45:32;;;;;;;6.50;4.60;;;;;;;31.55;22.99;99700.16;10378255;28;20051;-56
2023/06/18 12:50:34;;;;;;;4.45;4.15;;;;;;;31.49;23.76;99692.19;10378950;28;20106;-58
2023/06/18 12:55:36;;;;;;;5.63;4.75;;;;;;;31.46;22.58;99692.75;10381101;28;20053;-57
2023/06/18 13:00:37;;;;;;;4.72;4.35;;;;;;;31.35;23.42;99681.75;10377801;28;20135;-57
2023/06/18 13:05:39;;;;;;;4.70;4.30;;;;;;;31.40;23.41;99671.84;10374358;28;20049;-58
2023/06/18 13:10:40;;;;;;;4.28;3.97;;;;;;;31.37;23.33;99663.03;10376833;28;20225;-57
2023/06/18 13:15:42;;;;;;;5.03;4.20;;;;;;;31.32;23.38;99652.06;10388653;28;20104;-57
2023/06/18 13:20:46;;;;;;;4.53;4.13;;;;;;;31.41;23.40;99648.72;10376644;28;20140;-57
2023/06/18 13:25:48;;;;;;;4.57;4.15;;;;;;;31.44;23.42;99649.03;10375917;28;20529;-57
2023/06/18 13:30:50;;;;;;;;;;;;;;;31.32;23.42;99641.06;10377309;28;20061;-57
2023/06/18 13:35:51;;;;;;;4.47;4.17;;;;;;;31.31;23.68;99633.91;10375396;28;20409;-57
2023/06/18 13:40:53;;;;;;;4.97;4.57;;;;;;;31.26;23.34;99633.91;10384156;28;20866;-57
2023/06/18 13:45:56;;;;;;;4.78;4.22;;;;;;;31.19;23.71;99638.88;10378171;28;20045;-57
2023/06/18 13:50:57;;;;;;;5.32;4.20;;;;;;;31.23;23.79;99625.38;10386080;28;20049;-57
2023/06/18 13:55:59;;;;;;;4.80;4.38;;;;;;;31.20;23.13;99637.78;10375604;28;20829;-57
2023/06/18 14:01:00;;;;;;;4.43;4.03;;;;;;;31.16;23.38;99631.16;10369977;28;20060;-58
2023/06/18 14:06:02;;;;;;;3.70;3.40;;;;;;;31.12;23.70;99625.41;10375324;28;20791;-57
2023/06/18 14:11:03;;;;;;;4.55;4.25;;;;;;;31.02;22.97;99623.47;10371135;28;20057;-58
2023/06/18 14:16:07;;;;;;;4.53;3.92;;;;;;;30.90;23.49;99622.91;10367870;28;20048;-57
2023/06/18 14:21:13;;;;;;;4.57;4.20;;;;;;;30.80;24.17;99611.91;10374899;28;20300;-58
2023/06/18 14:26:14;;;;;;;4.53;3.95;;;;;;;30.80;24.06;99607.22;10368933;28;20106;-58
2023/06/18 14:31:17;;;;;;;4.60;4.20;;;;;;;30.80;24.32;99606.41;10388304;28;20067;-58
2023/06/18 14:36:19;;;;;;;4.55;4.15;;;;;;;30.72;24.16;99609.72;10370902;28;20056;-57
2023/06/18 14:41:20;;;;;;;5.30;4.78;;;;;;;30.61;24.49;99609.69;10380033;28;20063;-58
2023/06/18 14:46:22;;;;;;;4.40;4.05;;;;;;;30.56;24.54;99597.88;10376553;28;20106;-58
2023/06/18 14:51:24;;;;;;;;;;;;;;;30.52;24.55;99589.31;10373749;28;20048;-57
2023/06/18 14:56:28;;;;;;;4.53;4.13;;;;;;;30.52;24.77;99586.59;10375630;28;19924;-58
2023/06/18 15:01:29;;;;;;;4.20;3.80;;;;;;;30.52;25.50;99578.34;10375795;28;20451;-57
2023/06/18 15:06:32;;;;;;;4.75;4.43;;;;;;;30.52;24.99;99589.31;10371125;28;20056;-57
2023/06/18 15:11:34;;;;;;;7.22;6.53;;;;;;;30.56;24.91;99578.63;10374513;28;20514;-57
2023/06/18 15:16:36;;;;;;;5.18;4.68;;;;;;;30.58;25.15;99571.78;10375289;28;20504;-56
2023/06/18 15:21:37;;;;;;;4.78;4.38;;;;;;;30.58;24.97;99571.78;10378440;28;20049;-58
2023/06/18 15:26:39;;;;;;;4.93;4.57;;;;;;;30.59;24.68;99572.59;10376718;28;20391;-57
2023/06/18 15:31:41;;;;;;;4.78;4.38;;;;;;;30.72;25.23;99571.25;10376826;28;21237;-57
2023/06/18 15:36:43;;;;;;;5.15;4.65;;;;;;;30.74;25.09;99563.56;10374670;28;20056;-57
2023/06/18 15:41:44;;;;;;;9.07;4.80;;;;;;;30.79;25.15;99569.03;10376814;28;20049;-58
2023/06/18 15:46:45;;;;;;;6.43;4.93;;;;;;;30.74;24.92;99577.28;10379163;28;20135;-57
2023/06/18 15:51:47;;;;;;;5.97;5.47;;;;;;;30.66;24.86;99567.66;10378994;28;20695;-57
2023/06/18 15:56:49;;;;;;;6.38;5.32;;;;;;;30.66;25.30;99568.47;10370798;28;20337;-57
2023/06/18 16:01:53;;;;;;;6.03;5.53;;;;;;;30.67;24.71;99564.66;10374014;28;20052;-57
2023/06/18 16:06:55;;;;;;;5.18;4.65;;;;;;;30.78;25.21;99542.69;10373061;28;20238;-57
2023/06/18 16:11:57;;;;;;;5.85;5.25;;;;;;;30.78;25.02;99539.94;10375928;28;20056;-57
2023/06/18 16:16:58;;;;;;;5.32;4.80;;;;;;;30.73;25.36;99534.44;10373658;28;20675;-57
2023/06/18 16:21:59;;;;;;;6.13;5.53;;;;;;;30.77;25.58;99530.03;10376314;28;20060;-58
2023/06/18 16:27:03;;;;;;;6.10;5.30;;;;;;;30.84;25.31;99530.59;10380225;28;20052;-57
2023/06/18 16:32:10;;;;;;;5.28;4.78;;;;;;;30.80;25.69;99540.47;10379081;28;20057;-57
2023/06/18 16:37:12;;;;;;;7.10;6.22;;;;;;;30.73;25.07;99534.44;10387041;28;20507;-57
2023/06/18 16:42:14;;;;;;;5.93;5.43;;;;;;;30.59;25.26;99524.00;10376914;28;20971;-56
2023/06/18 16:47:15;;;;;;;7.13;5.47;;;;;;;30.60;25.79;99542.13;10379006;28;20122;-57
2023/06/18 16:52:17;;;;;;;6.07;5.57;;;;;;;30.55;25.76;99547.63;10379668;28;20586;-57
2023/06/18 16:57:19;;;;;;;6.30;5.70;;;;;;;30.49;25.77;99551.44;10378213;28;20360;-65
2023/06/18 17:02:20;;;;;;;6.68;6.18;;;;;;;30.44;25.41;99544.03;10382081;28;20056;-62
2023/06/18 17:07:22;;;;;;;6.43;5.80;;;;;;;30.40;26.11;99547.56;10370413;28;20053;-58
2023/06/18 17:12:24;;;;;;;5.80;5.35;;;;;;;30.30;26.00;99540.94;10370133;28;20076;-59
2023/06/18 17:17:27;;;;;;;6.00;5.30;;;;;;;30.29;26.40;99541.22;10380214;28;20053;-58
2023/06/18 17:22:30;;;;;;;6.10;5.60;;;;;;;30.22;26.28;99536.00;10379148;28;20050;-58
2023/06/18 17:27:31;;;;;;;6.80;6.05;;;;;;;30.16;26.23;99531.59;10385966;28;20658;-58
2023/06/18 17:32:33;;;;;;;5.72;5.30;;;;;;;30.10;26.67;99538.16;10381864;28;20053;-58
2023/06/18 17:37:34;;;;;;;5.93;5.22;;;;;;;30.02;26.40;99538.69;10384080;28;20395;-58
2023/06/18 17:42:36;;;;;;;6.93;5.63;;;;;;;29.95;26.80;99534.28;10385651;28;20538;-59
2023/06/18 17:47:42;;;;;;;6.22;5.60;;;;;;;29.91;26.43;99535.09;10378080;28;20064;-59
2023/06/18 17:52:43;;;;;;;6.15;5.55;;;;;;;29.84;26.25;99535.34;10376885;28;20064;-59
2023/06/18 17:57:46;;;;;;;6.00;5.43;;;;;;;29.79;26.13;99532.56;10368537;28;20133;-59
2023/06/18 18:02:49;;;;;;;6.35;5.63;;;;;;;29.74;26.51;99529.78;10379267;28;20791;-60
2023/06/18 18:07:52;;;;;;;6.13;5.50;;;;;;;29.68;26.42;99536.34;10376225;28;20144;-58
2023/06/18 18:12:53;;;;;;;5.97;5.40;;;;;;;29.60;26.65;99535.75;10379203;28;20089;-58
2023/06/18 18:17:55;;;;;;;5.60;5.10;;;;;;;29.55;26.77;99534.91;10385643;28;20867;-58
2023/06/18 18:22:57;;;;;;;6.03;5.53;;;;;;;29.51;26.64;99542.84;10381066;28;20553;-58
2023/06/18 18:27:58;;;;;;;5.47;5.07;;;;;;;29.48;26.91;99537.88;10377374;28;20127;-58
2023/06/18 18:33:00;;;;;;;5.33;4.93;;;;;;;29.42;26.96;99544.44;10378984;28;20048;-57
2023/06/18 18:38:02;;;;;;;6.68;5.88;;;;;;;29.38;26.67;99541.41;10376187;28;20057;-57
2023/06/18 18:43:03;;;;;;;6.55;5.50;;;;;;;29.37;26.55;99547.16;10375187;28;20516;-58
2023/06/18 18:48:05;;;;;;;6.90;6.07;;;;;;;29.26;27.59;99530.66;10376254;28;20838;-58
2023/06/18 18:53:07;;;;;;;6.50;6.00;;;;;;;29.26;27.96;99536.13;10382185;28;20448;-58
2023/06/18 18:58:10;;;;;;;5.57;5.18;;;;;;;29.23;28.68;99539.41;10373442;28;20106;-58
2023/06/18 19:03:11;;;;;;;5.68;5.15;;;;;;;29.19;29.34;99540.97;10368888;28;20060;-58
2023/06/18 19:08:13;;;;;;;7.13;5.50;;;;;;;29.15;29.72;99545.34;10365448;28;20048;-57
2023/06/18 19:13:15;;;;;;;6.87;5.60;;;;;;;29.05;29.88;99545.25;10373568;28;20299;-58
2023/06/18 19:18:17;;;;;;;7.25;6.55;;;;;;;29.01;30.20;99549.63;10372317;28;20079;-59
2023/06/18 19:23:18;;;;;;;6.32;5.78;;;;;;;28.95;30.63;99553.44;10375514;28;20541;-58
2023/06/18 19:28:21;;;;;;;6.93;6.33;;;;;;;28.90;30.65;99554.22;10373480;28;20112;-58
2023/06/18 19:33:23;;;;;;;5.57;5.13;;;;;;;28.86;31.03;99558.56;10374890;28;20049;-59
2023/06/18 19:38:25;;;;;;;6.67;5.73;;;;;;;28.84;31.30;99563.44;10374867;28;20080;-58
2023/06/18 19:43:27;;;;;;;6.20;5.70;;;;;;;28.80;32.01;99565.91;10368157;28;20285;-60
2023/06/18 19:48:28;;;;;;;6.53;5.93;;;;;;;28.75;31.87;99568.59;10372911;28;20470;-58
2023/06/18 19:53:30;;;;;;;7.27;6.67;;;;;;;28.71;31.59;99568.28;10374877;28;20060;-58
2023/06/18 19:58:32;;;;;;;6.72;6.00;;;;;;;28.64;31.02;99573.13;10370542;28;21214;-57
2023/06/18 20:03:36;;;;;;;6.67;6.00;;;;;;;28.61;30.89;99589.28;10386533;28;20521;-57
2023/06/18 20:08:39;;;;;;;8.43;7.47;;;;;;;28.52;31.17;99597.09;10380244;28;20049;-58
2023/06/18 20:13:41;;;;;;;7.32;6.63;;;;;;;28.48;31.47;99596.78;10377617;28;20884;-58
2023/06/18 20:18:43;;;;;;;8.25;7.45;;;;;;;28.45;31.18;99599.19;10377415;28;20061;-58
2023/06/18 20:23:44;;;;;;;7.97;7.17;;;;;;;28.39;31.25;99609.28;10379562;28;20053;-57
2023/06/18 20:28:46;;;;;;;7.35;6.75;;;;;;;28.37;30.91;99611.44;10379153;28;20114;-58
2023/06/18 20:33:48;;;;;;;7.30;6.53;;;;;;;28.28;30.85;99602.84;10378524;28;20060;-58
2023/06/18 20:38:49;;;;;;;6.90;6.40;;;;;;;28.29;31.18;99604.50;10380666;28;20807;-57
2023/06/18 20:43:51;;;;;;;6.95;6.45;;;;;;;28.26;31.11;99598.75;10381642;28;20571;-57
2023/06/18 20:48:53;;;;;;;8.40;6.63;;;;;;;28.19;31.28;99594.28;10376063;28;20138;-58
2023/06/18 20:53:58;;;;;;;7.65;7.05;;;;;;;28.17;31.54;99595.63;10376827;28;20083;-58
2023/06/18 20:59:00;;;;;;;7.20;6.50;;;;;;;28.09;32.00;99599.66;10380827;28;20198;-59
2023/06/18 21:04:01;;;;;;;7.37;6.60;;;;;;;28.06;32.15;99594.69;10378853;28;20056;-58
2023/06/18 21:09:03;;;;;;;7.82;7.13;;;;;;;28.03;32.27;99589.72;10377885;28;21189;-58
2023/06/18 21:14:05;;;;;;;8.23;7.53;;;;;;;27.97;32.42;99596.19;10367065;28;20045;-58
2023/06/18 21:19:06;;;;;;;8.18;7.57;;;;;;;27.97;32.81;99594.31;10378814;28;20052;-60
2023/06/18 21:24:08;;;;;;;9.07;8.23;;;;;;;27.87;33.13;99580.47;10378248;28;20123;-60
2023/06/18 21:29:09;;;;;;;11.35;6.93;;;;;;;27.86;34.40;99587.84;10377990;28;20057;-51
2023/06/18 21:34:11;;;;;;;8.48;6.88;;;;;;;27.83;35.15;99585.63;10381871;28;20127;-52
2023/06/18 21:39:12;;;;;;;9.68;7.15;;;;;;;27.79;35.08;99600.88;10390751;28;20591;-52
2023/06/18 21:44:13;;;;;;;9.20;8.40;;;;;;;27.74;34.58;99599.97;10386291;28;20071;-52
2023/06/18 21:49:15;;;;;;;8.57;7.68;;;;;;;27.68;34.95;99605.38;10392312;28;20060;-51
2023/06/18 21:54:17;;;;;;;7.93;7.13;;;;;;;27.64;34.98;99608.88;10391506;28;20071;-52
2023/06/18 21:59:19;;;;;;;7.27;6.67;;;;;;;27.60;35.05;99607.72;10382884;28;21067;-51
2023/06/18 22:04:20;;;;;;;7.00;6.40;;;;;;;27.54;35.14;99598.63;10397201;28;20407;-52
2023/06/18 22:09:23;;;;;;;7.90;7.20;;;;;;;27.48;35.11;99605.91;10388631;28;20533;-51
2023/06/18 22:14:24;;;;;;;;;;;;;;;27.43;35.63;99603.13;10383952;28;20052;-51
2023/06/18 22:19:26;;;;;;;6.80;6.30;;;;;;;27.40;35.17;99602.75;10386786;28;19924;-52
2023/06/18 22:24:27;;;;;;;7.38;6.78;;;;;;;27.36;35.26;99602.44;10385604;28;20053;-52
2023/06/18 22:29:29;;;;;;;6.93;6.32;;;;;;;27.32;35.32;99606.72;10385456;28;20061;-51
2023/06/18 22:34:30;;;;;;;7.20;6.68;;;;;;;27.27;34.49;99606.66;10386652;28;20068;-51
2023/06/18 22:39:43;;;;;;;7.23;6.57;;;;;;;27.25;35.39;99609.63;10391303;28;20161;-51
2023/06/18 22:44:44;;;;;;;8.20;7.10;;;;;;;27.22;35.72;99598.38;10385905;28;20041;-51
2023/06/18 22:49:46;;;;;;;7.55;6.95;;;;;;;27.19;35.58;99610.63;10390681;28;20658;-51
2023/06/18 22:54:47;;;;;;;7.35;6.75;;;;;;;27.12;35.04;99609.97;10390472;28;20545;-51
2023/06/18 22:59:49;;;;;;;7.93;7.22;;;;;;;27.02;35.31;99618.81;10383610;28;20224;-51
2023/06/18 23:04:50;;;;;;;7.78;7.18;;;;;;;27.03;35.24;99627.84;10384890;28;20218;-51
2023/06/18 23:09:52;;;;;;;7.87;7.13;;;;;;;27.03;35.49;99630.59;10381811;28;20081;-52
2023/06/18 23:14:54;;;;;;;8.85;8.10;;;;;;;26.95;36.79;99620.91;10390601;28;20175;-51
2023/06/18 23:19:55;;;;;;;7.35;6.65;;;;;;;26.80;37.93;99599.63;10378852;28;20215;-51
2023/06/18 23:24:56;;;;;;;7.15;6.53;;;;;;;26.72;38.66;99589.94;10384561;28;20710;-51
2023/06/18 23:30:01;;;;;;;7.32;6.63;;;;;;;26.72;38.56;99589.09;10390828;28;20500;-51